Time;durP1;ratioP1;P1;durP2;ratioP2;P2;SDS_P1;SDS_P2;PMS_P1;PMS_P2;Temp;Humidity;BMP_temperature;BMP_pressure;BME280_temperature;BME280_humidity;BME280_pressure;Samples;Min_cycle;Max_cycle;Signal;HPM_P1;HPM_P2
2023/04/03 00:02:13;;;;;;;4.25;0.85;;;;;;;-2.27;90.69;102848.47;4948453;28;20159;-83
2023/04/03 00:04:39;;;;;;;6.90;1.10;;;-0.50;99.90;;;-2.35;90.00;102844.69;4971656;28;20037;-81
2023/04/03 00:07:05;;;;;;;6.82;0.93;;;-0.50;99.90;;;-2.35;89.35;102843.81;4959867;28;20479;-81
2023/04/03 00:09:37;;;;;;;5.30;0.80;;;-0.60;99.90;;;-2.38;89.37;102844.56;4946323;28;20036;-83
2023/04/03 00:12:03;;;;;;;8.30;1.20;;;;;;;-2.39;89.76;102844.53;4964226;28;20033;-82
2023/04/03 00:14:33;;;;;;;7.97;1.10;;;-0.60;99.90;;;-2.34;90.50;102845.56;4975326;28;20235;-81
2023/04/03 00:17:04;;;;;;;7.35;0.95;;;-0.60;99.90;;;-2.36;90.38;102842.91;4954671;28;20044;-82
2023/04/03 00:19:40;;;;;;;;;;;;;;;;;;;;;
2023/04/03 00:22:15;;;;;;;9.85;1.20;;;-0.60;99.90;;;-2.39;89.29;102841.94;4974610;28;20372;-80
2023/04/03 00:24:50;;;;;;;;;;;;;;;;;;;;;
2023/04/03 00:27:18;;;;;;;11.45;2.08;;;-0.60;99.90;;;-2.36;89.64;102852.38;4889838;28;22646;-80
2023/04/03 00:29:43;;;;;;;12.15;1.40;;;-0.60;99.90;;;-2.35;89.54;102852.44;4892032;28;20045;-81
2023/04/03 00:32:17;;;;;;;3.83;0.93;;;-0.60;99.90;;;-2.28;90.31;102862.19;4920653;28;20031;-81
2023/04/03 00:34:45;;;;;;;12.70;1.48;;;-0.50;99.90;;;-2.22;90.04;102861.56;4939045;28;20051;-81
2023/04/03 00:37:19;;;;;;;5.82;1.27;;;-0.50;99.90;;;-2.13;90.54;102863.63;4896861;28;20045;-81
2023/04/03 00:39:45;;;;;;;11.45;1.30;;;-0.40;99.90;;;-2.09;90.48;102860.34;5000237;28;20447;-81
2023/04/03 00:42:12;;;;;;;10.73;1.52;;;-0.40;99.90;;;-2.02;90.46;102858.88;4991533;28;20199;-80
2023/04/03 00:44:38;;;;;;;15.10;1.50;;;-0.30;99.90;;;-1.95;90.69;102863.47;4985821;28;20029;-80
2023/04/03 00:47:15;;;;;;;10.82;1.30;;;-0.20;99.90;;;-1.87;90.68;102870.69;4987655;28;20041;-80
2023/04/03 00:49:42;;;;;;;8.35;1.10;;;-0.10;99.90;;;-1.78;90.42;102866.72;4983033;28;20037;-80
2023/04/03 00:52:19;;;;;;;5.70;0.95;;;-0.10;99.90;;;-1.77;90.26;102873.63;4982215;28;20033;-80
2023/04/03 00:54:49;;;;;;;7.40;1.02;;;-0.10;99.90;;;-1.87;89.53;102868.09;4961566;28;20127;-80
2023/04/03 00:57:21;;;;;;;6.05;0.88;;;-0.20;99.90;;;-1.94;89.27;102863.53;4983712;28;20040;-80
2023/04/03 00:59:54;;;;;;;5.93;1.10;;;-0.20;99.90;;;-1.98;89.28;102866.81;4959593;28;20038;-79
2023/04/03 01:02:25;;;;;;;7.35;0.90;;;-0.20;99.90;;;-1.92;89.70;102868.78;4945887;28;20044;-79
2023/04/03 01:04:51;;;;;;;15.35;1.75;;;-0.10;99.90;;;-1.81;89.62;102869.16;4985302;28;20541;-79
2023/04/03 01:07:27;;;;;;;4.38;1.17;;;-0.10;99.90;;;-1.76;89.61;102865.94;4962400;28;20158;-78
2023/04/03 01:09:58;;;;;;;10.55;1.30;;;-0.10;99.90;;;-1.71;89.17;102871.28;4979250;28;20517;-79
2023/04/03 01:12:33;;;;;;;4.95;1.02;;;0.00;99.90;;;-1.70;88.72;102867.88;4955450;28;20504;-79
2023/04/03 01:15:10;;;;;;;9.52;1.50;;;0.00;99.90;;;-1.68;88.28;102874.88;4968508;28;20058;-78
2023/04/03 01:17:39;;;;;;;15.02;1.60;;;0.00;99.90;;;-1.68;88.49;102876.56;4952534;28;20021;-78
2023/04/03 01:20:39;;;;;;;15.68;1.50;;;0.10;99.90;;;-1.67;88.52;102873.16;4948554;28;20546;-78
2023/04/03 01:23:10;;;;;;;11.27;1.40;;;0.00;99.90;;;-1.71;88.15;102873.84;5022760;28;20065;-78
2023/04/03 01:25:40;;;;;;;7.00;1.10;;;0.00;99.90;;;-1.71;88.28;102866.09;4981638;28;20113;-78
2023/04/03 01:28:18;;;;;;;7.63;1.25;;;0.00;99.90;;;-1.66;87.91;102872.34;4956904;28;20029;-77
2023/04/03 01:31:30;;;;;;;4.63;0.68;;;0.00;99.90;;;-1.65;87.28;102874.09;4949296;28;20112;-77
2023/04/03 01:33:56;;;;;;;7.57;1.20;;;0.00;99.90;;;-1.69;87.45;102873.09;4986267;28;20072;-78
2023/04/03 01:36:29;;;;;;;9.90;1.25;;;0.10;99.90;;;-1.68;87.14;102879.16;4953770;28;20527;-78
2023/04/03 01:38:57;;;;;;;5.95;0.70;;;0.00;99.90;;;-1.67;87.49;102886.94;4953414;28;20036;-78
2023/04/03 01:41:23;;;;;;;13.35;1.20;;;0.10;99.90;;;-1.66;87.17;102885.28;4961026;28;20129;-78
2023/04/03 01:43:49;;;;;;;5.43;1.05;;;0.00;99.90;;;-1.65;86.85;102884.44;4955521;28;20049;-77
2023/04/03 01:46:25;;;;;;;17.65;1.42;;;0.10;99.90;;;-1.66;87.02;102887.84;4993819;28;20213;-77
2023/04/03 01:48:51;;;;;;;7.60;1.08;;;0.10;99.90;;;-1.67;86.82;102889.53;5007435;28;20045;-77
2023/04/03 01:51:17;;;;;;;6.20;1.48;;;0.10;99.90;;;-1.62;86.96;102889.72;4978446;28;20029;-78
2023/04/03 01:53:43;;;;;;;6.07;1.00;;;0.10;99.90;;;-1.58;86.73;102888.13;4973707;28;20040;-77
2023/04/03 01:56:09;;;;;;;7.53;1.17;;;0.10;99.90;;;-1.56;86.97;102892.53;4984592;28;20037;-77
2023/04/03 01:58:39;;;;;;;6.40;1.15;;;0.10;99.90;;;-1.56;86.48;102892.53;5019623;28;20042;-77
2023/04/03 02:01:05;;;;;;;8.73;1.38;;;0.10;99.90;;;-1.53;86.65;102897.81;4976958;28;20025;-78
2023/04/03 02:03:32;;;;;;;5.93;1.33;;;0.20;99.90;;;-1.53;86.36;102900.41;4985249;28;20187;-78
2023/04/03 02:05:59;;;;;;;10.38;1.48;;;0.20;99.90;;;-1.52;86.16;102897.00;4948765;28;20064;-77
2023/04/03 02:08:25;;;;;;;7.47;1.20;;;0.20;99.90;;;-1.54;85.94;102900.34;4989267;28;20470;-77
2023/04/03 02:10:51;;;;;;;6.45;1.00;;;0.10;99.90;;;-1.58;85.75;102901.91;5000740;28;20048;-76
2023/04/03 02:13:20;;;;;;;8.07;1.60;;;0.10;99.90;;;-1.61;85.41;102894.06;5022670;28;20121;-77
2023/04/03 02:15:46;;;;;;;8.63;1.42;;;0.10;99.90;;;-1.66;85.66;102893.00;4965682;28;20394;-78
2023/04/03 02:18:12;;;;;;;10.77;1.10;;;0.00;99.90;;;-1.69;85.86;102895.47;5002042;28;20140;-77
2023/04/03 02:20:38;;;;;;;8.40;1.25;;;-0.10;99.90;;;-1.74;85.60;102895.28;5002221;28;20042;-77
2023/04/03 02:23:05;;;;;;;9.70;1.35;;;-0.10;99.90;;;-1.76;85.45;102893.47;5021846;28;20397;-76
2023/04/03 02:25:32;;;;;;;13.68;1.60;;;-0.10;99.90;;;-1.74;85.65;102897.00;5012724;28;20277;-76
2023/04/03 02:27:58;;;;;;;12.13;1.55;;;0.00;99.90;;;-1.69;85.94;102898.91;4986939;28;20047;-76
2023/04/03 02:30:24;;;;;;;9.13;1.48;;;0.00;99.90;;;-1.64;86.42;102899.13;5002863;28;20498;-77
2023/04/03 02:32:50;;;;;;;13.18;1.45;;;0.00;99.90;;;-1.57;86.51;102903.69;5010021;28;20086;-76
2023/04/03 02:35:16;;;;;;;9.80;1.88;;;0.10;99.90;;;-1.53;86.07;102903.00;4993040;28;20033;-76
2023/04/03 02:37:42;;;;;;;7.72;1.17;;;0.10;99.90;;;-1.51;86.03;102900.44;4994412;28;20044;-76
2023/04/03 02:40:08;;;;;;;7.40;1.85;;;0.20;99.90;;;-1.49;86.02;102903.97;5000375;28;20034;-76
2023/04/03 02:42:34;;;;;;;8.15;1.10;;;0.20;99.90;;;-1.51;86.11;102903.94;5014035;28;20398;-76
2023/04/03 02:45:00;;;;;;;11.38;1.40;;;0.20;99.90;;;-1.46;86.00;102910.16;4986172;28;20035;-76
2023/04/03 02:47:27;;;;;;;12.55;1.30;;;0.20;99.90;;;-1.45;86.54;102908.44;5012650;28;20025;-77
2023/04/03 02:49:53;;;;;;;12.40;0.98;;;0.20;99.90;;;-1.48;86.82;102918.66;4999445;28;20045;-76
2023/04/03 02:52:20;;;;;;;10.23;1.38;;;0.20;99.90;;;-1.45;86.60;102916.19;5000152;28;20025;-76
2023/04/03 02:54:46;;;;;;;11.82;1.98;;;0.20;99.90;;;-1.45;86.82;102911.94;4988031;28;20045;-76
2023/04/03 02:57:12;;;;;;;7.20;1.35;;;0.30;99.90;;;-1.41;87.26;102914.59;5002731;28;20633;-76
2023/04/03 02:59:41;;;;;;;10.88;1.50;;;0.30;99.90;;;-1.42;87.23;102912.88;4990564;28;21519;-76
2023/04/03 03:02:08;;;;;;;6.88;1.10;;;0.30;99.90;;;-1.38;87.01;102912.13;4972361;28;20039;-76
2023/04/03 03:04:34;;;;;;;5.72;1.00;;;0.30;99.90;;;-1.34;86.82;102903.66;4992130;28;20620;-76
2023/04/03 03:07:01;;;;;;;9.70;1.27;;;0.40;99.90;;;-1.28;87.28;102914.25;5000588;28;20609;-76
2023/04/03 03:09:27;;;;;;;12.35;1.30;;;0.40;99.90;;;-1.26;87.17;102912.59;4977035;28;20417;-76
2023/04/03 03:11:53;;;;;;;11.15;1.23;;;0.40;99.90;;;-1.26;87.08;102910.00;4982263;28;20034;-76
2023/04/03 03:14:19;;;;;;;11.00;1.27;;;0.40;99.90;;;-1.30;86.94;102910.72;5017968;28;20410;-76
2023/04/03 03:16:45;;;;;;;11.25;1.23;;;0.40;99.90;;;-1.29;86.40;102913.38;5000472;28;20121;-76
2023/04/03 03:19:10;;;;;;;13.18;1.20;;;0.40;99.90;;;-1.31;86.05;102912.44;5010009;28;20034;-76
2023/04/03 03:21:37;;;;;;;13.32;1.98;;;0.40;99.90;;;-1.33;86.71;102915.78;4991541;28;20041;-75
2023/04/03 03:24:03;;;;;;;5.53;0.90;;;0.40;99.90;;;-1.35;86.23;102917.44;5000546;28;20478;-76
2023/04/03 03:26:29;;;;;;;17.90;1.60;;;0.40;99.90;;;-1.34;86.74;102920.09;5000029;28;20433;-76
2023/04/03 03:28:55;;;;;;;7.53;1.10;;;0.40;99.90;;;-1.36;86.59;102916.56;4989801;28;20049;-76
2023/04/03 03:31:20;;;;;;;11.20;1.40;;;0.30;99.90;;;-1.42;86.29;102907.69;5002074;28;20526;-76
2023/04/03 03:33:46;;;;;;;6.90;1.10;;;0.30;99.90;;;-1.45;86.36;102909.34;5000586;28;20033;-75
2023/04/03 03:36:12;;;;;;;9.55;1.27;;;0.30;99.90;;;-1.49;86.61;102910.03;5020007;28;20095;-76
2023/04/03 03:38:38;;;;;;;9.80;1.10;;;0.30;99.90;;;-1.46;86.93;102911.84;5000732;28;20029;-76
2023/04/03 03:41:04;;;;;;;9.57;1.23;;;0.30;99.90;;;-1.42;87.39;102920.63;4998592;28;20040;-75
2023/04/03 03:43:30;;;;;;;9.30;1.38;;;0.30;99.90;;;-1.40;87.69;102913.78;4993740;28;20041;-75
2023/04/03 03:45:56;;;;;;;7.88;1.15;;;0.30;99.90;;;-1.42;87.43;102916.31;4975682;28;20096;-76
2023/04/03 03:48:23;;;;;;;9.90;1.20;;;0.40;99.90;;;-1.38;88.00;102918.19;4995681;28;20514;-76
2023/04/03 03:50:50;;;;;;;4.43;0.70;;;0.40;99.90;;;-1.35;88.04;102920.00;4998213;28;20128;-76
2023/04/03 03:53:16;;;;;;;9.30;0.93;;;0.30;99.90;;;-1.41;87.96;102917.19;4989793;28;20033;-75
2023/04/03 03:55:44;;;;;;;8.77;1.50;;;0.40;99.90;;;-1.38;88.34;102914.72;5020250;28;20649;-76
2023/04/03 03:58:10;;;;;;;7.38;0.90;;;0.40;99.90;;;-1.33;88.37;102927.00;5000397;28;20064;-75
2023/04/03 04:00:36;;;;;;;8.00;1.20;;;0.40;99.90;;;-1.37;87.83;102922.53;4994070;28;20041;-76
2023/04/03 04:03:02;;;;;;;9.95;1.60;;;0.40;99.90;;;-1.35;87.94;102913.13;5013346;28;20091;-75
2023/04/03 04:05:28;;;;;;;5.78;0.88;;;0.40;99.90;;;-1.41;87.27;102918.06;5001264;28;20042;-76
2023/04/03 04:07:53;;;;;;;9.23;1.17;;;0.30;99.90;;;-1.44;87.42;102923.13;5019689;28;20056;-76
2023/04/03 04:10:20;;;;;;;7.47;1.20;;;0.30;99.90;;;-1.42;86.68;102920.63;4997407;28;20624;-75
2023/04/03 04:12:45;;;;;;;6.07;0.80;;;0.40;99.90;;;-1.38;86.14;102927.63;4990140;28;20100;-75
2023/04/03 04:15:11;;;;;;;3.97;0.68;;;0.40;99.90;;;-1.38;85.56;102927.63;5002325;28;20498;-76
2023/04/03 04:17:38;;;;;;;2.10;0.70;;;0.30;99.90;;;-1.43;85.27;102924.00;4984524;28;20726;-76
2023/04/03 04:20:04;;;;;;;4.07;0.82;;;0.30;99.90;;;-1.40;84.52;102929.28;4983600;28;20028;-75
2023/04/03 04:22:30;;;;;;;8.20;0.90;;;0.30;99.90;;;-1.46;84.24;102923.06;5001208;28;20029;-76
2023/04/03 04:24:56;;;;;;;6.28;1.00;;;0.20;99.90;;;-1.51;84.23;102929.78;5008060;28;20053;-76
2023/04/03 04:27:24;;;;;;;5.85;0.73;;;0.20;99.90;;;-1.61;83.81;102929.34;4999589;28;20694;-75
2023/04/03 04:29:50;;;;;;;4.93;0.63;;;0.10;99.90;;;-1.65;83.42;102931.81;4999632;28;20034;-75
2023/04/03 04:32:16;;;;;;;3.40;0.80;;;0.10;99.90;;;-1.70;84.04;102930.75;5009516;28;20044;-75
2023/04/03 04:34:42;;;;;;;7.18;1.05;;;0.00;99.90;;;-1.69;84.40;102936.78;5022039;28;20068;-75
2023/04/03 04:37:07;;;;;;;9.20;0.98;;;0.00;99.90;;;-1.67;84.06;102942.91;5029286;28;20044;-76
2023/04/03 04:39:34;;;;;;;10.48;1.02;;;0.00;99.90;;;-1.67;83.89;102948.06;5017352;28;20167;-75
2023/04/03 04:42:00;;;;;;;12.80;2.25;;;0.00;99.90;;;-1.70;84.18;102956.59;5016393;28;20602;-76
2023/04/03 04:44:26;;;;;;;3.65;0.77;;;0.00;99.90;;;-1.70;84.27;102951.41;5010765;28;20037;-76
2023/04/03 04:46:53;;;;;;;11.65;0.95;;;0.00;99.90;;;-1.66;84.91;102958.47;5022020;28;21367;-75
2023/04/03 04:49:19;;;;;;;5.43;0.82;;;0.00;99.90;;;-1.69;84.81;102955.75;4990900;28;20045;-74
2023/04/03 04:51:45;;;;;;;4.00;0.82;;;0.10;99.90;;;-1.60;84.58;102960.41;5018153;28;20056;-74
2023/04/03 04:54:11;;;;;;;12.80;1.40;;;0.10;99.90;;;-1.53;84.80;102951.22;4980890;28;20033;-74
2023/04/03 04:56:36;;;;;;;4.85;0.90;;;0.10;99.90;;;-1.51;84.79;102955.63;4992063;28;20498;-74
2023/04/03 04:59:02;;;;;;;10.88;1.10;;;0.20;99.90;;;-1.46;84.67;102961.81;4998680;28;20049;-74
2023/04/03 05:01:28;;;;;;;7.60;1.00;;;0.20;99.90;;;-1.41;84.85;102963.72;4997358;28;20494;-75
2023/04/03 05:03:54;;;;;;;9.70;1.35;;;0.20;99.90;;;-1.34;84.20;102965.69;4995610;28;20052;-75
2023/04/03 05:06:20;;;;;;;3.72;0.82;;;0.30;99.90;;;-1.28;83.98;102969.41;4990823;28;22824;-74
2023/04/03 05:08:48;;;;;;;10.20;0.98;;;0.30;99.90;;;-1.20;84.16;102969.69;5000594;28;20029;-74
2023/04/03 05:11:14;;;;;;;7.07;0.82;;;0.40;99.90;;;-1.14;83.34;102975.09;4988454;28;20034;-75
2023/04/03 05:13:40;;;;;;;6.22;1.13;;;0.40;99.90;;;-1.11;83.09;102980.38;5005870;28;20576;-75
2023/04/03 05:16:06;;;;;;;2.88;0.75;;;0.50;99.90;;;-1.05;82.85;102975.44;4999282;28;20113;-75
2023/04/03 05:18:32;;;;;;;7.95;0.90;;;0.50;99.90;;;-0.96;82.77;102980.06;5003414;28;20034;-74
2023/04/03 05:20:58;;;;;;;9.52;1.77;;;0.60;99.90;;;-0.74;82.10;102981.75;5009301;28;20079;-75
2023/04/03 05:23:24;;;;;;;9.95;0.90;;;1.00;99.90;;;0.52;79.92;102996.34;5028115;28;20683;-75
2023/04/03 05:25:50;;;;;;;9.25;1.08;;;1.40;99.90;;;1.57;77.04;103005.44;4999059;28;20068;-75
2023/04/03 05:28:16;;;;;;;5.90;0.82;;;2.00;99.90;;;2.18;72.24;102994.88;4972943;28;20034;-75
2023/04/03 05:30:42;;;;;;;3.58;0.80;;;2.20;99.90;;;1.15;72.45;102995.63;5017954;28;20506;-74
2023/04/03 05:33:07;;;;;;;12.77;1.15;;;2.20;99.90;;;0.89;73.73;102987.09;4982559;28;20030;-75
2023/04/03 05:35:40;;;;;;;6.43;1.08;;;2.20;99.90;;;0.83;73.86;102986.91;5002594;28;20599;-74
2023/04/03 05:38:06;;;;;;;7.72;0.82;;;2.20;99.90;;;0.75;73.61;102988.38;4993828;28;20034;-74
2023/04/03 05:40:32;;;;;;;6.70;1.13;;;2.20;99.90;;;0.73;74.59;102984.88;5020385;28;20037;-75
2023/04/03 05:42:57;;;;;;;6.22;0.90;;;2.20;99.90;;;0.71;74.54;102984.81;5001532;28;20038;-75
2023/04/03 05:45:23;;;;;;;7.97;0.80;;;2.20;99.90;;;1.03;74.43;102992.69;4987993;28;20047;-75
2023/04/03 05:47:49;;;;;;;10.23;1.20;;;2.20;99.90;;;0.93;74.12;102996.72;5008367;28;20128;-75
2023/04/03 05:50:15;;;;;;;6.03;1.00;;;2.30;99.90;;;1.66;74.39;103010.00;5007956;28;20109;-74
2023/04/03 05:52:46;;;;;;;9.35;1.02;;;2.70;99.90;;;2.92;72.26;103030.41;4999356;28;20521;-75
2023/04/03 05:55:12;;;;;;;6.38;0.80;;;3.20;99.90;;;3.54;69.32;103022.13;4995553;28;20099;-75
2023/04/03 05:57:38;;;;;;;6.25;0.90;;;3.50;99.90;;;3.01;68.77;103023.69;4994334;28;20037;-77
2023/04/03 06:00:07;;;;;;;5.18;0.95;;;3.60;99.90;;;2.83;69.56;103024.16;5002218;28;20117;-76
2023/04/03 06:02:32;;;;;;;6.70;1.08;;;3.80;99.90;;;3.75;69.70;103037.28;5002654;28;20441;-76
2023/04/03 06:05:00;;;;;;;11.07;1.52;;;3.80;99.90;;;3.02;68.80;103022.84;5009591;28;20045;-76
2023/04/03 06:07:27;;;;;;;9.57;1.30;;;4.10;99.90;;;4.60;66.78;103037.88;4963668;28;20033;-77
2023/04/03 06:09:55;;;;;;;8.75;1.08;;;4.20;99.90;;;3.45;67.32;103030.66;4972544;28;20033;-78
2023/04/03 06:12:22;;;;;;;6.20;0.90;;;4.10;99.90;;;2.77;67.70;103015.34;4962223;28;20480;-77
2023/04/03 06:14:48;;;;;;;10.65;1.13;;;4.00;99.90;;;2.50;68.40;103012.97;4977704;28;20090;-77
2023/04/03 06:17:17;;;;;;;6.85;1.33;;;3.90;99.90;;;2.62;68.53;103015.88;4966970;28;20044;-77
2023/04/03 06:19:44;;;;;;;7.32;1.30;;;3.80;99.90;;;2.82;68.45;103018.91;4983546;28;20124;-77
2023/04/03 06:22:11;;;;;;;8.27;0.73;;;3.70;99.90;;;2.94;66.90;103021.78;4988866;28;20044;-77
2023/04/03 06:24:37;;;;;;;9.15;1.15;;;3.80;99.90;;;2.45;67.90;103020.66;4954700;28;20582;-77
2023/04/03 06:27:04;;;;;;;5.53;0.77;;;3.80;99.90;;;2.29;69.11;103015.94;5000378;28;20048;-78
2023/04/03 06:29:37;;;;;;;9.00;1.00;;;3.70;99.90;;;2.07;69.02;103012.81;4959014;28;20120;-78
2023/04/03 06:32:03;;;;;;;8.50;1.15;;;3.60;99.90;;;1.98;69.77;103023.84;4947735;28;20040;-76
2023/04/03 06:34:29;;;;;;;3.80;0.93;;;3.60;99.90;;;2.02;70.66;103027.41;4967848;28;21373;-78
2023/04/03 06:36:54;;;;;;;6.97;1.20;;;3.50;99.90;;;1.89;70.60;103020.13;4978144;28;20517;-78
2023/04/03 06:39:25;;;;;;;9.70;1.20;;;3.30;99.90;;;1.76;70.05;103019.81;4965214;28;20017;-78
2023/04/03 06:41:51;;;;;;;7.30;2.03;;;3.40;99.90;;;1.83;70.27;103024.31;4995159;28;20033;-77
2023/04/03 06:44:17;;;;;;;7.25;1.23;;;3.40;99.90;;;1.82;69.99;103027.78;4970093;28;20040;-79
2023/04/03 06:46:44;;;;;;;6.90;1.38;;;3.40;99.90;;;1.88;69.26;103031.34;4982462;28;20058;-79
2023/04/03 06:49:11;;;;;;;8.07;1.60;;;3.40;99.90;;;1.89;69.07;103033.13;4972936;28;20092;-77
2023/04/03 06:51:37;;;;;;;5.72;1.13;;;3.40;99.90;;;1.72;68.95;103032.69;4959981;28;20046;-78
2023/04/03 06:54:08;;;;;;;7.85;1.50;;;3.20;99.90;;;1.49;68.27;103032.03;4980143;28;20025;-78
2023/04/03 06:56:34;;;;;;;5.90;0.68;;;3.20;99.90;;;1.40;68.89;103030.06;4940993;28;20042;-78
2023/04/03 06:59:00;;;;;;;7.78;1.10;;;3.10;99.90;;;1.43;68.83;103041.41;4948282;28;20046;-77
2023/04/03 07:01:38;;;;;;;9.70;1.45;;;3.20;99.90;;;1.63;69.35;103046.28;4967575;28;20053;-77
2023/04/03 07:04:05;;;;;;;7.53;1.95;;;3.30;99.90;;;1.66;68.79;103056.75;4964692;28;20064;-78
2023/04/03 07:06:32;;;;;;;2.83;0.73;;;3.30;99.90;;;1.63;69.07;103051.47;5009938;28;20033;-77
2023/04/03 07:09:06;;;;;;;5.50;1.30;;;3.30;99.90;;;1.83;69.04;103065.88;5002588;28;20037;-77
2023/04/03 07:11:32;;;;;;;6.10;0.90;;;3.30;99.90;;;1.76;68.39;103057.91;4982446;28;20037;-77
2023/04/03 07:13:58;;;;;;;5.30;0.82;;;3.30;99.90;;;1.81;67.79;103057.19;4965139;28;20239;-77
2023/04/03 07:16:24;;;;;;;6.18;0.70;;;3.40;99.90;;;1.91;68.61;103060.03;4988070;28;20166;-78
2023/04/03 07:18:52;;;;;;;8.98;0.50;;;3.50;99.90;;;1.95;67.96;103059.28;4971251;28;20618;-76
2023/04/03 07:21:18;;;;;;;2.55;0.63;;;3.60;99.90;;;2.12;67.41;103063.19;4980962;28;20139;-77
2023/04/03 07:23:44;;;;;;;6.57;0.85;;;3.60;99.90;;;2.24;66.54;103063.50;5003673;28;20073;-77
2023/04/03 07:26:10;;;;;;;3.50;0.43;;;3.80;99.90;;;2.90;66.13;103084.16;4973408;28;20038;-77
2023/04/03 07:28:36;;;;;;;5.22;1.02;;;4.10;99.90;;;3.49;63.73;103100.19;4985141;28;20092;-77
2023/04/03 07:31:13;;;;;;;4.18;0.88;;;4.30;99.90;;;3.78;62.60;103111.22;5007352;28;20065;-77
2023/04/03 07:33:40;;;;;;;2.67;0.50;;;5.20;99.90;;;4.73;59.53;103112.03;4985661;28;20163;-77
2023/04/03 07:36:08;;;;;;;6.32;1.02;;;5.50;99.90;;;4.25;59.82;103099.91;4985776;28;20040;-77
2023/04/03 07:38:40;;;;;;;1.35;0.50;;;5.30;99.90;;;3.70;60.17;103102.34;4973591;28;20041;-78
2023/04/03 07:41:06;;;;;;;7.10;0.90;;;5.00;99.90;;;3.28;61.17;103095.41;4976179;28;20508;-77
2023/04/03 07:43:34;;;;;;;5.57;0.68;;;4.80;99.90;;;2.80;61.56;103085.66;4991508;28;20061;-77
2023/04/03 07:46:00;;;;;;;5.70;0.77;;;4.40;99.90;;;2.58;63.30;103089.47;5012154;28;20060;-78
2023/04/03 07:48:31;;;;;;;2.88;0.50;;;4.30;99.90;;;2.36;63.19;103082.88;5004977;28;20047;-77
2023/04/03 07:51:03;;;;;;;3.88;0.60;;;4.10;99.90;;;2.21;63.16;103084.22;4987164;28;20029;-76
2023/04/03 07:53:37;;;;;;;6.70;0.77;;;3.90;99.90;;;2.11;62.91;103074.41;4983206;28;20030;-77
2023/04/03 07:56:02;;;;;;;7.50;1.08;;;3.90;99.90;;;2.32;62.76;103083.63;5007923;28;20054;-77
2023/04/03 07:58:29;;;;;;;2.00;0.40;;;3.90;99.90;;;2.23;61.09;103077.34;4975719;28;20573;-77
2023/04/03 08:00:56;;;;;;;3.25;0.52;;;4.00;99.90;;;2.64;61.26;103100.91;4957410;28;20100;-77
2023/04/03 08:03:29;;;;;;;9.63;0.93;;;4.30;99.90;;;3.86;61.20;103134.81;4950573;28;20045;-78
2023/04/03 08:06:02;;;;;;;7.93;1.63;;;5.80;99.90;;;6.51;57.94;103165.69;4980957;28;20029;-77
2023/04/03 08:08:32;;;;;;;6.35;1.10;;;6.90;99.90;;;6.23;56.60;103160.19;4940205;28;20585;-78
2023/04/03 08:11:00;;;;;;;3.53;0.80;;;7.20;99.90;;;5.53;55.16;103136.69;4957879;28;20120;-79
2023/04/03 08:13:26;;;;;;;4.63;0.40;;;6.40;99.90;;;4.13;55.57;103118.81;4980568;28;20037;-79
2023/04/03 08:15:52;;;;;;;5.28;0.65;;;5.80;99.90;;;3.83;57.49;103119.13;4979266;28;20120;-78
2023/04/03 08:18:26;;;;;;;2.90;0.68;;;5.40;99.90;;;3.40;58.21;103116.50;4968217;28;20122;-79
2023/04/03 08:20:52;;;;;;;8.32;1.17;;;5.10;99.90;;;3.26;58.49;103113.63;4965790;28;20847;-80
2023/04/03 08:23:19;;;;;;;4.50;0.55;;;4.90;99.90;;;3.24;59.73;103117.91;4995914;28;20093;-79
2023/04/03 08:25:45;;;;;;;3.95;0.60;;;5.00;99.90;;;3.43;59.48;103123.50;5019374;28;20037;-79
2023/04/03 08:28:19;;;;;;;7.38;0.80;;;4.90;99.90;;;3.39;59.39;103119.97;4981712;28;20033;-79
2023/04/03 08:30:45;;;;;;;4.63;0.90;;;5.00;99.90;;;3.76;59.09;103138.06;4973965;28;20063;-80
2023/04/03 08:33:11;;;;;;;6.20;0.93;;;5.40;99.90;;;4.47;56.73;103142.88;4966146;28;20041;-78
2023/04/03 08:35:42;;;;;;;4.20;0.70;;;5.60;99.90;;;4.58;56.51;103148.28;4924071;28;20046;-79
2023/04/03 08:38:12;;;;;;;5.45;0.77;;;6.30;99.90;;;5.95;52.93;103179.91;4973290;28;20044;-79
2023/04/03 08:40:40;;;;;;;2.50;0.50;;;7.50;99.90;;;7.49;50.54;103205.72;4948020;28;20042;-79
2023/04/03 08:43:26;;;;;;;3.10;0.50;;;8.90;98.10;;;8.94;47.70;103233.34;4940132;28;20984;-79
2023/04/03 08:46:05;;;;;;;4.55;0.85;;;9.70;97.00;;;8.77;46.72;103204.44;4976453;28;20108;-80
2023/04/03 08:48:41;;;;;;;5.70;1.10;;;9.90;96.70;;;8.13;48.16;103199.03;4939529;28;20505;-80
2023/04/03 08:51:20;;;;;;;;;;;9.70;96.60;;;8.41;47.86;103202.63;4958073;28;20516;-80
2023/04/03 08:54:15;;;;;;;3.53;0.50;;;9.60;95.20;;;7.48;47.14;103184.75;5004469;28;20369;-80
2023/04/03 08:56:41;;;;;;;1.88;0.45;;;8.70;94.90;;;6.29;48.51;103173.34;4948411;28;20049;-81
2023/04/03 08:59:26;;;;;;;7.03;0.75;;;8.30;97.40;;;6.78;49.91;103184.28;4961766;28;20029;-81
2023/04/03 09:02:35;;;;;;;7.90;1.00;;;8.20;96.10;;;6.29;49.63;103180.31;4946024;28;20144;-80
2023/04/03 09:05:12;;;;;;;5.55;0.88;;;7.80;97.40;;;6.01;51.21;103179.13;4957474;28;20068;-82
2023/04/03 09:08:10;;;;;;;1.60;0.47;;;7.30;97.60;;;5.49;51.39;103169.72;4968613;28;20046;-80
2023/04/03 09:10:44;;;;;;;4.38;0.80;;;7.20;99.20;;;6.24;51.96;103182.88;4974099;28;20048;-81
2023/04/03 09:13:30;;;;;;;1.55;0.38;;;7.70;99.80;;;6.95;51.43;103187.03;4979137;28;20029;-81
2023/04/03 09:15:57;;;;;;;4.90;0.63;;;7.70;99.60;;;6.54;51.75;103184.94;4976642;28;20068;-82
2023/04/03 09:18:32;;;;;;;6.00;1.00;;;7.90;99.40;;;6.61;51.66;103180.63;4995796;28;21594;-82
2023/04/03 09:21:07;;;;;;;5.13;0.80;;;7.30;97.90;;;5.50;52.03;103168.00;4998478;28;20600;-80
2023/04/03 09:24:04;;;;;;;5.63;1.00;;;7.00;98.20;;;5.18;52.49;103165.78;4969576;28;20030;-81
2023/04/03 09:27:02;;;;;;;2.50;0.60;;;7.00;98.90;;;5.33;52.71;103179.09;5004548;28;20026;-82
2023/04/03 09:29:28;;;;;;;2.67;0.82;;;6.80;98.20;;;5.27;51.99;103175.50;4991703;28;20042;-83
2023/04/03 09:32:38;;;;;;;6.60;1.00;;;6.80;99.30;;;5.50;53.27;103178.44;4972755;28;20058;-80
2023/04/03 09:35:24;;;;;;;4.05;0.60;;;6.70;99.50;;;5.24;53.15;103171.09;4982296;28;20044;-82
2023/04/03 09:38:16;;;;;;;3.57;1.27;;;6.60;99.50;;;5.13;53.50;103168.34;4972862;28;20049;-82
2023/04/03 09:41:18;;;;;;;2.38;0.55;;;6.40;99.90;;;4.95;55.27;103157.63;4960284;28;20037;-82
2023/04/03 09:43:54;;;;;;;3.88;0.57;;;6.40;99.90;;;4.80;55.31;103160.84;4967372;28;20116;-82
2023/04/03 09:46:38;;;;;;;3.65;0.40;;;6.30;99.90;;;4.58;56.03;103150.91;4985637;28;20086;-81
2023/04/03 09:49:17;;;;;;;10.07;0.82;;;6.30;99.90;;;4.95;58.03;103157.63;4990144;28;20088;-81
2023/04/03 09:52:19;;;;;;;2.97;0.70;;;6.10;99.90;;;4.22;56.34;103155.50;4954621;28;20064;-81
2023/04/03 09:54:46;;;;;;;3.90;0.85;;;5.60;99.90;;;3.62;57.75;103137.78;4982874;28;20037;-81
2023/04/03 09:57:24;;;;;;;6.20;0.80;;;5.40;99.90;;;3.45;59.07;103129.63;5020110;28;20240;-80
2023/04/03 10:00:21;;;;;;;2.13;0.60;;;5.10;99.90;;;3.46;59.01;103126.19;4988194;28;20037;-81
2023/04/03 10:02:57;;;;;;;1.95;0.50;;;5.30;99.90;;;3.97;60.33;103117.63;5002633;28;20040;-79
2023/04/03 10:05:41;;;;;;;3.50;0.90;;;5.70;99.90;;;4.64;58.19;103137.97;4959116;28;20037;-80
2023/04/03 10:08:18;;;;;;;3.22;0.60;;;5.90;99.90;;;4.68;54.90;103158.91;4956682;28;20111;-79
2023/04/03 10:10:51;;;;;;;3.78;0.63;;;6.10;99.90;;;4.82;55.69;103167.00;4968960;28;20093;-79
2023/04/03 10:13:29;;;;;;;4.93;0.85;;;6.30;99.90;;;4.86;55.14;103152.22;4974016;28;20033;-79
2023/04/03 10:16:08;;;;;;;5.95;0.70;;;6.20;99.90;;;4.53;55.40;103145.59;5007010;28;20038;-80
2023/04/03 10:19:01;;;;;;;5.57;1.15;;;6.10;99.90;;;4.74;56.54;103147.69;4978510;28;20057;-80
2023/04/03 10:22:03;;;;;;;6.43;0.50;;;6.40;99.90;;;5.25;55.51;103141.53;5011916;28;20060;-80
2023/04/03 10:25:00;;;;;;;4.03;0.80;;;6.70;99.90;;;5.49;54.53;103154.06;5015826;28;20052;-79
2023/04/03 10:27:57;;;;;;;6.22;0.73;;;6.80;99.90;;;5.33;54.68;103150.34;5008863;28;20025;-80
2023/04/03 10:31:06;;;;;;;3.42;0.90;;;6.60;99.90;;;4.78;54.60;103140.81;5004982;28;20101;-80
2023/04/03 10:34:15;;;;;;;3.10;0.68;;;6.60;99.90;;;4.95;55.84;103136.72;4964992;28;20069;-79
2023/04/03 10:36:57;;;;;;;3.53;0.60;;;6.60;99.90;;;5.24;55.20;103144.13;5014213;28;20068;-80
2023/04/03 10:39:56;;;;;;;5.32;0.70;;;6.80;99.90;;;5.60;55.99;103142.88;4993353;28;20037;-80
2023/04/03 10:43:04;;;;;;;2.65;0.68;;;6.70;99.90;;;4.76;55.00;103122.50;4977389;28;20029;-80